Time;durP1;ratioP1;P1;durP2;ratioP2;P2;SDS_P1;SDS_P2;PMS_P1;PMS_P2;Temp;Humidity;BMP_temperature;BMP_pressure;BME280_temperature;BME280_humidity;BME280_pressure;Samples;Min_cycle;Max_cycle;Signal;HPM_P1;HPM_P2
2021/06/09 00:01:14;;;;;;;9.52;5.45;;;538.20;1561.60;;;;;;5114081;28;20019;-76
2021/06/09 00:03:40;;;;;;;9.57;6.13;;;538.00;1561.60;;;;;;5114149;28;20499;-75
2021/06/09 00:06:06;;;;;;;12.38;5.78;;;537.90;1587.20;;;;;;5114247;28;20027;-76
2021/06/09 00:08:32;;;;;;;10.07;5.70;;;537.90;1587.20;;;;;;5112376;28;20028;-76
2021/06/09 00:10:57;;;;;;;8.70;5.55;;;538.00;1561.60;;;;;;5114064;28;20022;-76
2021/06/09 00:13:27;;;;;;;12.32;5.03;;;538.10;1561.60;;;;;;5113659;28;20035;-76
2021/06/09 00:15:54;;;;;;;8.80;5.70;;;538.00;1561.60;;;;;;5113974;28;20027;-76
2021/06/09 00:18:19;;;;;;;8.75;5.63;;;538.10;1561.60;;;;;;5113793;28;20024;-76
2021/06/09 00:20:45;;;;;;;9.68;6.25;;;538.00;1561.60;;;;;;5109197;28;20105;-76
2021/06/09 00:23:16;;;;;;;7.63;5.05;;;538.20;1561.60;;;;;;5106243;28;20023;-76
2021/06/09 00:25:47;;;;;;;10.02;5.78;;;538.20;1561.60;;;;;;5110566;28;20028;-75
2021/06/09 00:28:12;;;;;;;13.88;6.65;;;538.20;1561.60;;;;;;5083653;28;20047;-76
2021/06/09 00:30:39;;;;;;;9.77;6.18;;;538.10;1561.60;;;;;;5108722;28;20381;-77
2021/06/09 00:33:05;;;;;;;8.55;5.65;;;538.10;1561.60;;;;;;5107950;28;20026;-76
2021/06/09 00:35:31;;;;;;;9.55;5.80;;;538.20;1536.00;;;;;;5105351;28;20087;-76
2021/06/09 00:37:56;;;;;;;8.38;5.85;;;538.20;1536.00;;;;;;5099258;28;20024;-76
2021/06/09 00:40:22;;;;;;;9.82;5.78;;;538.20;1561.60;;;;;;5113377;28;20462;-77
2021/06/09 00:43:22;;;;;;;8.68;5.53;;;538.20;1561.60;;;;;;5109398;28;20028;-76
2021/06/09 00:45:55;;;;;;;8.00;5.60;;;538.00;1561.60;;;;;;5024207;28;20041;-75
2021/06/09 00:48:25;;;;;;;11.48;5.95;;;538.00;1561.60;;;;;;5030362;28;20041;-76
2021/06/09 00:50:52;;;;;;;7.93;5.70;;;538.00;1561.60;;;;;;5030704;28;20041;-76
2021/06/09 00:53:35;;;;;;;11.55;5.43;;;538.00;1561.60;;;;;;5030518;28;20091;-77
2021/06/09 00:56:10;;;;;;;9.75;5.57;;;537.90;1587.20;;;;;;5029855;28;20395;-76
2021/06/09 00:58:37;;;;;;;7.25;5.35;;;537.70;1587.20;;;;;;5030544;28;20028;-76
2021/06/09 01:01:04;;;;;;;8.65;5.82;;;537.70;1561.60;;;;;;5010387;28;20626;-76
2021/06/09 01:03:31;;;;;;;7.47;5.72;;;537.60;1587.20;;;;;;5025698;28;20034;-76
2021/06/09 01:05:57;;;;;;;9.68;6.07;;;537.60;1587.20;;;;;;5030193;28;20018;-76
2021/06/09 01:08:23;;;;;;;7.03;5.78;;;537.60;1587.20;;;;;;5010427;28;20052;-76
2021/06/09 01:10:50;;;;;;;9.60;6.10;;;537.60;1587.20;;;;;;5030497;28;20522;-76
2021/06/09 01:13:24;;;;;;;10.75;5.85;;;512.90;1561.60;;;;;;5030122;28;20033;-75
2021/06/09 01:15:50;;;;;;;7.45;5.78;;;537.60;1587.20;;;;;;5030223;28;20113;-76
2021/06/09 01:18:17;;;;;;;10.70;6.05;;;537.60;1561.60;;;;;;5029930;28;20403;-76
2021/06/09 01:20:43;;;;;;;11.57;5.63;;;512.90;1561.60;;;;;;5045121;28;20172;-76
2021/06/09 01:23:09;;;;;;;10.43;5.72;;;512.90;1561.60;;;;;;5112277;28;20039;-76
2021/06/09 01:25:35;;;;;;;7.68;5.75;;;512.80;1587.20;;;;;;5110408;28;20504;-76
2021/06/09 01:28:03;;;;;;;10.27;5.63;;;512.70;1587.20;;;;;;5110914;28;20023;-76
2021/06/09 01:30:29;;;;;;;11.18;5.45;;;512.60;1587.20;;;;;;5112227;28;20024;-76
2021/06/09 01:32:55;;;;;;;8.07;5.45;;;512.50;1612.80;;;;;;5112031;28;20035;-76
2021/06/09 01:35:21;;;;;;;7.93;5.18;;;512.80;1587.20;;;;;;5112338;28;20028;-77
2021/06/09 01:37:48;;;;;;;8.90;5.15;;;512.50;1612.80;;;;;;5096899;28;20012;-76
2021/06/09 01:40:17;;;;;;;10.15;6.35;;;512.50;1587.20;;;;;;5101282;28;20059;-76
2021/06/09 01:42:43;;;;;;;7.88;6.00;;;512.40;1638.40;;;;;;5086637;28;20446;-76
2021/06/09 01:45:16;;;;;;;10.38;6.75;;;512.30;1612.80;;;;;;5111870;28;20019;-76
2021/06/09 01:47:42;;;;;;;7.90;6.00;;;512.70;1638.40;;;;;;5111798;28;20035;-76
2021/06/09 01:50:11;;;;;;;7.75;5.93;;;512.40;1638.40;;;;;;5103849;28;20020;-76
2021/06/09 01:52:36;;;;;;;7.80;5.97;;;512.30;1638.40;;;;;;5106280;28;20028;-76
2021/06/09 01:55:07;;;;;;;11.32;5.85;;;512.30;1638.40;;;;;;5105892;28;20377;-76
2021/06/09 01:57:33;;;;;;;8.43;5.85;;;512.20;1638.40;;;;;;5111905;28;20123;-76
2021/06/09 02:00:01;;;;;;;8.43;5.90;;;512.30;1664.00;;;;;;5112139;28;20024;-76
2021/06/09 02:02:27;;;;;;;9.55;6.22;;;512.50;1664.00;;;;;;5103383;28;20038;-76
2021/06/09 02:04:53;;;;;;;9.23;6.22;;;512.40;1664.00;;;;;;5111835;28;20020;-76
2021/06/09 02:07:18;;;;;;;7.93;5.85;;;512.30;1664.00;;;;;;5111172;28;20035;-76
2021/06/09 02:09:45;;;;;;;9.70;6.03;;;512.30;1664.00;;;;;;5111910;28;20026;-75
2021/06/09 02:12:11;;;;;;;9.38;6.32;;;512.20;1689.60;;;;;;5111713;28;20125;-76
2021/06/09 02:14:37;;;;;;;12.77;7.05;;;512.20;1664.00;;;;;;5111659;28;20041;-76
2021/06/09 02:17:09;;;;;;;13.75;6.82;;;512.20;1664.00;;;;;;5111453;28;20027;-76
2021/06/09 02:19:34;;;;;;;11.65;6.57;;;512.30;1638.40;;;;;;5111461;28;20380;-76
2021/06/09 02:22:00;;;;;;;11.48;6.55;;;512.40;1638.40;;;;;;5111347;28;20024;-76
2021/06/09 02:24:29;;;;;;;9.43;6.45;;;512.40;1638.40;;;;;;5111498;28;20035;-76
2021/06/09 02:26:57;;;;;;;10.57;6.80;;;512.30;1664.00;;;;;;5111577;28;20135;-76
2021/06/09 02:29:23;;;;;;;11.40;6.53;;;512.40;1664.00;;;;;;5111202;28;20469;-76
2021/06/09 02:31:50;;;;;;;10.32;6.47;;;512.10;1664.00;;;;;;5111219;28;20098;-76
2021/06/09 02:34:22;;;;;;;11.05;7.30;;;512.00;1664.00;;;;;;5111165;28;20015;-76
2021/06/09 02:36:52;;;;;;;10.00;6.72;;;512.00;1689.60;;;;;;5111567;28;20111;-76
2021/06/09 02:39:20;;;;;;;9.73;6.75;;;512.00;1689.60;;;;;;5093055;28;20093;-76
2021/06/09 02:41:47;;;;;;;9.13;7.13;;;512.10;1664.00;;;;;;5111468;28;20512;-77
2021/06/09 02:44:13;;;;;;;10.55;6.90;;;512.20;1664.00;;;;;;5111474;28;20072;-76
2021/06/09 02:46:52;;;;;;;9.93;7.70;;;512.30;1664.00;;;;;;5095762;28;20488;-76
2021/06/09 02:49:25;;;;;;;8.65;6.80;;;512.30;1664.00;;;;;;5114967;28;20031;-75
2021/06/09 02:51:58;;;;;;;9.40;7.30;;;512.30;1664.00;;;;;;5115242;28;20091;-76
2021/06/09 02:54:27;;;;;;;13.77;7.15;;;512.20;1664.00;;;;;;5114789;28;20488;-75
2021/06/09 02:57:19;;;;;;;10.68;7.13;;;512.10;1689.60;;;;;;5110967;28;20040;-76
2021/06/09 03:00:06;;;;;;;11.80;7.90;;;512.00;1715.20;;;;;;5115595;28;20465;-76
2021/06/09 03:02:55;;;;;;;10.75;7.38;;;487.30;1740.80;;;;;;5091748;28;20024;-76
2021/06/09 03:05:28;;;;;;;17.80;7.38;;;487.30;1740.80;;;;;;5114619;28;20100;-76
2021/06/09 03:08:15;;;;;;;12.63;7.80;;;487.30;1766.40;;;;;;5115332;28;20039;-76
2021/06/09 03:10:41;;;;;;;12.18;8.05;;;487.20;1766.40;;;;;;5115393;28;20020;-76
2021/06/09 03:13:29;;;;;;;13.40;7.70;;;487.20;1740.80;;;;;;5115024;28;20488;-76
2021/06/09 03:16:06;;;;;;;10.80;8.65;;;487.20;1766.40;;;;;;5115099;28;20027;-76
2021/06/09 03:18:45;;;;;;;13.02;8.75;;;487.10;1766.40;;;;;;5114973;28;20031;-76
2021/06/09 03:21:49;;;;;;;13.70;8.10;;;487.00;1766.40;;;;;;5101739;28;20028;-76
2021/06/09 03:24:36;;;;;;;14.10;9.52;;;487.00;1766.40;;;;;;4984740;28;20081;-75
2021/06/09 03:27:06;;;;;;;16.95;9.63;;;486.80;1792.00;;;;;;5000068;28;20049;-76
2021/06/09 03:29:49;;;;;;;15.20;9.60;;;486.90;1792.00;;;;;;4992492;28;20065;-75
2021/06/09 03:32:31;;;;;;;11.10;8.68;;;486.90;1792.00;;;;;;4992499;28;20034;-76
2021/06/09 03:35:28;;;;;;;14.10;8.63;;;486.90;1792.00;;;;;;4992042;28;20419;-76
2021/06/09 03:37:59;;;;;;;13.60;8.85;;;486.90;1792.00;;;;;;4992640;28;20037;-76
2021/06/09 03:40:38;;;;;;;18.75;8.85;;;486.90;1792.00;;;;;;4998091;28;20069;-76
2021/06/09 03:43:08;;;;;;;13.68;10.10;;;486.90;1792.00;;;;;;4999750;28;20042;-76
2021/06/09 03:45:42;;;;;;;19.48;10.20;;;486.80;1817.60;;;;;;4999123;28;20085;-76
2021/06/09 03:48:09;;;;;;;14.32;8.82;;;486.90;1792.00;;;;;;4999708;28;20100;-76
2021/06/09 03:50:35;;;;;;;11.02;9.07;;;486.90;1817.60;;;;;;4984401;28;20057;-76
2021/06/09 03:53:04;;;;;;;14.95;10.05;;;486.90;1817.60;;;;;;4999931;28;20058;-75
2021/06/09 03:55:34;;;;;;;14.45;8.68;;;486.80;1843.20;;;;;;4995909;28;20041;-77
2021/06/09 03:58:01;;;;;;;14.35;9.25;;;486.70;1843.20;;;;;;5011335;28;20080;-76
2021/06/09 04:00:28;;;;;;;16.25;8.77;;;486.70;1868.80;;;;;;5016557;28;20025;-76
2021/06/09 04:02:55;;;;;;;12.07;8.25;;;486.90;1843.20;;;;;;5031639;28;20040;-76
2021/06/09 04:05:23;;;;;;;13.57;7.85;;;487.00;1843.20;;;;;;5013507;28;20389;-76
2021/06/09 04:07:50;;;;;;;13.35;7.40;;;486.90;1817.60;;;;;;5011746;28;20047;-75
2021/06/09 04:10:19;;;;;;;12.20;7.60;;;486.90;1843.20;;;;;;5011398;28;20096;-75
2021/06/09 04:12:45;;;;;;;12.52;7.90;;;486.80;1843.20;;;;;;5011486;28;20030;-75
2021/06/09 04:15:13;;;;;;;11.50;7.93;;;486.70;1868.80;;;;;;5050794;28;20041;-77
2021/06/09 04:17:42;;;;;;;12.73;7.93;;;486.70;1868.80;;;;;;5093497;28;20026;-76
2021/06/09 04:20:10;;;;;;;11.05;7.55;;;486.80;1868.80;;;;;;5093561;28;20037;-76
2021/06/09 04:22:37;;;;;;;13.93;7.07;;;487.00;1868.80;;;;;;5093197;28;20069;-76
2021/06/09 04:25:06;;;;;;;11.02;8.13;;;487.00;1868.80;;;;;;5092960;28;20104;-76
2021/06/09 04:27:35;;;;;;;13.48;8.18;;;487.00;1843.20;;;;;;5092924;28;20165;-76
2021/06/09 04:30:03;;;;;;;12.00;8.45;;;487.00;1843.20;;;;;;5093250;28;20385;-76
2021/06/09 04:32:57;;;;;;;11.43;7.78;;;487.00;1843.20;;;;;;5093273;28;20023;-76
2021/06/09 04:35:25;;;;;;;10.77;7.03;;;487.00;1843.20;;;;;;5093023;28;20465;-76
2021/06/09 04:37:51;;;;;;;10.88;7.30;;;487.00;1843.20;;;;;;5074337;28;20477;-76
2021/06/09 04:40:27;;;;;;;13.02;8.07;;;486.90;1868.80;;;;;;5093219;28;20026;-76
2021/06/09 04:42:56;;;;;;;11.07;7.78;;;487.00;1868.80;;;;;;5092766;28;20020;-75
2021/06/09 04:45:24;;;;;;;12.80;6.47;;;487.10;1894.40;;;;;;5093159;28;20020;-77
2021/06/09 04:47:50;;;;;;;11.23;6.85;;;487.10;1868.80;;;;;;5092701;28;20028;-78
2021/06/09 04:50:21;;;;;;;12.60;7.88;;;487.20;1843.20;;;;;;5092687;28;20023;-75
2021/06/09 04:52:47;;;;;;;11.70;7.25;;;487.30;1843.20;;;;;;5092541;28;20081;-76
2021/06/09 04:55:14;;;;;;;12.80;7.80;;;512.00;1868.80;;;;;;5092484;28;20066;-77
2021/06/09 04:57:39;;;;;;;11.57;7.78;;;512.10;1843.20;;;;;;5093862;28;20547;-77
2021/06/09 05:00:08;;;;;;;12.40;8.15;;;512.30;1817.60;;;;;;5092441;28;20070;-76
2021/06/09 05:02:34;;;;;;;11.60;7.78;;;512.30;1843.20;;;;;;5092800;28;20035;-76
2021/06/09 05:05:00;;;;;;;14.30;7.97;;;512.40;1843.20;;;;;;5091616;28;20020;-75
2021/06/09 05:07:25;;;;;;;14.48;8.40;;;512.50;1843.20;;;;;;5091659;28;20128;-76
2021/06/09 05:09:53;;;;;;;11.60;8.25;;;512.30;1894.40;;;;;;5088905;28;20458;-76
2021/06/09 05:12:42;;;;;;;12.25;8.82;;;512.40;1868.80;;;;;;5078599;28;20110;-76
2021/06/09 05:15:10;;;;;;;19.48;8.27;;;512.30;1894.40;;;;;;5111751;28;20481;-76
2021/06/09 05:17:50;;;;;;;14.70;8.75;;;512.40;1894.40;;;;;;5091933;28;20028;-75
2021/06/09 05:20:28;;;;;;;10.43;7.40;;;512.60;1894.40;;;;;;5105768;28;20027;-76
2021/06/09 05:23:20;;;;;;;11.55;8.15;;;512.80;1920.00;;;;;;5080379;28;20023;-75
2021/06/09 05:25:49;;;;;;;13.32;7.82;;;512.80;1868.80;;;;;;5091190;28;20107;-75
2021/06/09 05:28:17;;;;;;;10.95;7.22;;;512.90;1894.40;;;;;;5091339;28;20173;-75
2021/06/09 05:30:43;;;;;;;17.17;8.88;;;537.60;1920.00;;;;;;5088941;28;20013;-75
2021/06/09 05:33:10;;;;;;;12.98;8.38;;;537.70;1920.00;;;;;;5091261;28;20057;-74
2021/06/09 05:35:36;;;;;;;17.33;8.20;;;537.70;1945.60;;;;;;5091503;28;20028;-74
2021/06/09 05:38:03;;;;;;;13.82;9.25;;;537.90;1920.00;;;;;;5093815;28;20023;-75
2021/06/09 05:40:29;;;;;;;15.82;7.53;;;538.00;1920.00;;;;;;5092023;28;20028;-75
2021/06/09 05:42:55;;;;;;;15.55;7.40;;;538.10;1920.00;;;;;;5091500;28;20062;-74
2021/06/09 05:45:32;;;;;;;11.15;7.55;;;538.30;1920.00;;;;;;5092088;28;20051;-74
2021/06/09 05:47:59;;;;;;;13.00;7.10;;;538.40;1894.40;;;;;;5090463;28;20028;-74
2021/06/09 05:50:28;;;;;;;8.18;6.75;;;538.50;1894.40;;;;;;5093503;28;20020;-75
2021/06/09 05:52:59;;;;;;;9.60;6.70;;;563.20;1945.60;;;;;;5073528;28;20024;-74
2021/06/09 05:55:27;;;;;;;13.00;6.65;;;563.20;1945.60;;;;;;5091692;28;20500;-76
2021/06/09 05:57:54;;;;;;;9.10;6.70;;;563.30;1920.00;;;;;;5094652;28;20050;-76
2021/06/09 06:00:23;;;;;;;15.80;6.18;;;563.40;1894.40;;;;;;5104656;28;20066;-73
2021/06/09 06:02:50;;;;;;;13.05;6.10;;;563.50;1894.40;;;;;;5106200;28;20385;-74
2021/06/09 06:05:17;;;;;;;10.57;6.85;;;563.60;1843.20;;;;;;5107596;28;20027;-75
2021/06/09 06:07:44;;;;;;;12.10;7.30;;;563.60;1868.80;;;;;;5101086;28;20399;-74
2021/06/09 06:10:10;;;;;;;8.90;6.18;;;563.70;1843.20;;;;;;5111783;28;20024;-74
2021/06/09 06:12:38;;;;;;;17.80;7.60;;;563.80;1868.80;;;;;;5104286;28;20038;-75
2021/06/09 06:15:06;;;;;;;10.07;6.15;;;563.90;1894.40;;;;;;5092709;28;20035;-77
2021/06/09 06:17:32;;;;;;;8.35;4.97;;;564.10;1843.20;;;;;;5108283;28;20045;-75
2021/06/09 06:19:58;;;;;;;12.70;5.78;;;588.80;1817.60;;;;;;5109786;28;20076;-75
2021/06/09 06:22:24;;;;;;;9.35;5.63;;;589.00;1792.00;;;;;;5111446;28;20018;-75
2021/06/09 06:24:51;;;;;;;10.55;5.53;;;589.10;1792.00;;;;;;5109704;28;20095;-77
2021/06/09 06:27:19;;;;;;;16.88;5.88;;;589.00;1766.40;;;;;;5110793;28;20067;-75
2021/06/09 06:29:46;;;;;;;10.18;5.53;;;589.30;1792.00;;;;;;5106629;28;20046;-75
2021/06/09 06:32:14;;;;;;;13.05;5.50;;;589.40;1766.40;;;;;;5116022;28;20308;-76
2021/06/09 06:34:42;;;;;;;10.38;5.90;;;589.40;1766.40;;;;;;5113333;28;20028;-75
2021/06/09 06:37:10;;;;;;;6.28;4.78;;;589.40;1766.40;;;;;;5115542;28;20034;-75
2021/06/09 06:39:36;;;;;;;11.52;5.63;;;589.50;1740.80;;;;;;5115709;28;20020;-75
2021/06/09 06:42:03;;;;;;;10.32;5.28;;;589.70;1740.80;;;;;;5115922;28;20032;-74
2021/06/09 06:44:29;;;;;;;7.60;5.65;;;614.40;1740.80;;;;;;5115474;28;20059;-75
2021/06/09 06:46:55;;;;;;;11.00;5.10;;;614.50;1715.20;;;;;;5115665;28;20020;-74
2021/06/09 06:49:21;;;;;;;8.48;4.93;;;614.50;1715.20;;;;;;5115631;28;20019;-75
2021/06/09 06:51:51;;;;;;;7.78;4.82;;;614.60;1689.60;;;;;;5109279;28;20085;-74
2021/06/09 06:54:18;;;;;;;10.20;5.20;;;614.70;1740.80;;;;;;5110102;28;20485;-75
2021/06/09 06:56:47;;;;;;;13.13;5.10;;;614.80;1715.20;;;;;;5110702;28;20610;-75
2021/06/09 06:59:13;;;;;;;6.50;4.57;;;614.90;1664.00;;;;;;5115533;28;20487;-75
2021/06/09 07:01:39;;;;;;;7.88;5.32;;;614.90;1689.60;;;;;;5115148;28;20110;-74
2021/06/09 07:04:06;;;;;;;8.15;4.47;;;615.00;1664.00;;;;;;5115334;28;20440;-74
2021/06/09 07:06:35;;;;;;;7.93;4.07;;;615.20;1638.40;;;;;;5115317;28;20101;-75
2021/06/09 07:09:02;;;;;;;6.57;4.63;;;615.20;1612.80;;;;;;5114842;28;20039;-75
2021/06/09 07:11:28;;;;;;;8.60;4.72;;;615.30;1587.20;;;;;;5115387;28;20473;-74
2021/06/09 07:13:57;;;;;;;8.68;4.50;;;615.30;1587.20;;;;;;5114833;28;20024;-74
2021/06/09 07:16:28;;;;;;;12.52;4.75;;;640.00;1561.60;;;;;;5115050;28;20015;-75
2021/06/09 07:18:55;;;;;;;6.13;4.63;;;640.10;1612.80;;;;;;5114844;28;20053;-74
2021/06/09 07:21:22;;;;;;;10.52;6.07;;;640.20;1587.20;;;;;;5114898;28;20023;-75
2021/06/09 07:23:48;;;;;;;8.63;4.72;;;640.30;1587.20;;;;;;5114556;28;20016;-74
2021/06/09 07:26:16;;;;;;;9.70;4.97;;;640.40;1561.60;;;;;;5115213;28;20085;-74
2021/06/09 07:28:48;;;;;;;11.70;4.47;;;640.50;1510.40;;;;;;5115197;28;20062;-75
2021/06/09 07:31:22;;;;;;;7.55;5.55;;;640.60;1510.40;;;;;;5080094;28;20019;-75
2021/06/09 07:33:48;;;;;;;7.50;4.43;;;640.70;1484.80;;;;;;5111253;28;20020;-74
2021/06/09 07:36:19;;;;;;;7.82;4.95;;;640.90;1510.40;;;;;;5083493;28;20030;-74
2021/06/09 07:38:50;;;;;;;9.35;6.63;;;665.60;1536.00;;;;;;5114772;28;20020;-74
2021/06/09 07:41:17;;;;;;;6.40;4.63;;;665.70;1433.60;;;;;;5114440;28;20028;-75
2021/06/09 07:43:47;;;;;;;7.53;5.70;;;665.90;1459.20;;;;;;5114377;28;20020;-75
2021/06/09 07:46:18;;;;;;;18.67;5.80;;;666.00;1459.20;;;;;;5114569;28;20055;-74
2021/06/09 07:48:50;;;;;;;6.72;3.72;;;666.20;1459.20;;;;;;5114330;28;20031;-74
2021/06/09 07:51:17;;;;;;;8.60;6.20;;;666.20;1433.60;;;;;;5114132;28;20027;-74
2021/06/09 07:53:43;;;;;;;10.40;5.40;;;666.20;1382.40;;;;;;5104476;28;20077;-74
2021/06/09 07:56:13;;;;;;;7.32;4.30;;;666.30;1408.00;;;;;;5113423;28;20557;-74
2021/06/09 07:58:41;;;;;;;7.45;4.35;;;666.40;1408.00;;;;;;5114357;28;20024;-75
2021/06/09 08:01:08;;;;;;;9.15;4.63;;;666.50;1382.40;;;;;;5114074;28;20461;-74
2021/06/09 08:03:36;;;;;;;10.90;4.38;;;691.20;1408.00;;;;;;5111041;28;20032;-74
2021/06/09 08:06:03;;;;;;;6.70;3.95;;;691.30;1408.00;;;;;;5097107;28;20024;-74
2021/06/09 08:08:30;;;;;;;7.30;4.15;;;691.30;1356.80;;;;;;5104208;28;20056;-74
2021/06/09 08:10:56;;;;;;;6.32;4.10;;;691.40;1382.40;;;;;;5093923;28;20024;-74
2021/06/09 08:13:22;;;;;;;6.10;4.68;;;691.50;1356.80;;;;;;5092559;28;20492;-75
2021/06/09 08:15:49;;;;;;;13.32;4.38;;;691.60;1305.60;;;;;;5093669;28;20108;-75
2021/06/09 08:18:14;;;;;;;8.73;4.00;;;691.60;1280.00;;;;;;5093904;28;20385;-74
2021/06/09 08:21:03;;;;;;;7.25;4.03;;;691.70;1331.20;;;;;;5093480;28;20020;-75
2021/06/09 08:23:30;;;;;;;8.48;3.97;;;691.80;1305.60;;;;;;5087035;28;20093;-75
2021/06/09 08:25:56;;;;;;;10.43;6.95;;;691.80;1305.60;;;;;;5093910;28;20220;-84
2021/06/09 08:31:17;;;;;;;8.55;4.50;;;691.80;1305.60;;;;;;3631288;23;20063;-76
2021/06/09 08:33:43;;;;;;;7.43;4.22;;;691.90;1305.60;;;;;;5066563;28;20067;-80
2021/06/09 08:36:13;;;;;;;12.10;4.43;;;692.10;1305.60;;;;;;5074724;28;20450;-83
2021/06/09 08:38:39;;;;;;;5.72;3.67;;;692.00;1305.60;;;;;;5092948;28;20427;-82
2021/06/09 08:41:06;;;;;;;8.32;3.90;;;716.90;1305.60;;;;;;5074863;28;20028;-87
2021/06/09 08:43:37;;;;;;;16.40;4.38;;;716.90;1305.60;;;;;;5075067;28;20069;-77
2021/06/09 08:46:06;;;;;;;5.68;3.55;;;716.90;1305.60;;;;;;5093559;28;20099;-78
2021/06/09 08:48:37;;;;;;;10.98;4.43;;;717.00;1254.40;;;;;;5076064;28;20028;-88
2021/06/09 08:51:05;;;;;;;5.22;3.95;;;717.10;1280.00;;;;;;5091598;28;20472;-85
2021/06/09 08:53:33;;;;;;;7.35;4.60;;;717.10;1280.00;;;;;;5093381;28;20047;-81
2021/06/09 08:56:06;;;;;;;6.63;4.05;;;717.10;1254.40;;;;;;5094359;28;20012;-85
2021/06/09 08:58:34;;;;;;;9.52;4.25;;;717.20;1203.20;;;;;;5077918;28;20028;-77
2021/06/09 09:00:59;;;;;;;12.85;4.00;;;717.40;1254.40;;;;;;5093685;28;20127;-81
2021/06/09 09:03:25;;;;;;;7.43;3.80;;;717.40;1280.00;;;;;;5075419;28;20047;-86
2021/06/09 09:05:51;;;;;;;7.20;4.00;;;717.40;1177.60;;;;;;5082847;28;20046;-78
2021/06/09 09:08:17;;;;;;;7.47;4.43;;;717.50;1228.80;;;;;;5090740;28;20036;-77
2021/06/09 09:10:43;;;;;;;7.68;4.10;;;717.40;1203.20;;;;;;5076200;28;20465;-82
2021/06/09 09:13:09;;;;;;;8.30;4.15;;;717.50;1254.40;;;;;;5064693;28;20596;-77
2021/06/09 09:15:34;;;;;;;6.93;3.58;;;717.50;1177.60;;;;;;5093219;28;20016;-83
2021/06/09 09:18:04;;;;;;;6.20;3.85;;;717.70;1177.60;;;;;;5065445;28;20031;-76
2021/06/09 09:20:37;;;;;;;8.27;4.07;;;742.40;1203.20;;;;;;5086909;28;20050;-77
2021/06/09 09:23:28;;;;;;;8.98;3.80;;;742.50;1203.20;;;;;;5074402;28;20024;-86
2021/06/09 09:25:56;;;;;;;9.40;4.43;;;742.50;1100.80;;;;;;5072050;28;20016;-87
2021/06/09 09:28:23;;;;;;;8.70;4.72;;;742.70;1152.00;;;;;;5088756;28;20034;-80
2021/06/09 09:30:49;;;;;;;11.57;3.90;;;742.70;1126.40;;;;;;5070711;28;20074;-80
2021/06/09 09:33:18;;;;;;;6.18;4.50;;;742.90;1126.40;;;;;;5092147;28;20129;-85
2021/06/09 09:35:46;;;;;;;6.18;4.47;;;743.00;1100.80;;;;;;5074223;28;20081;-81
2021/06/09 09:38:15;;;;;;;8.73;6.53;;;743.00;1126.40;;;;;;5074044;28;20085;-77
2021/06/09 09:40:59;;;;;;;8.65;5.53;;;743.20;1075.20;;;;;;5074608;28;20016;-86
2021/06/09 09:43:43;;;;;;;5.07;3.97;;;743.30;1126.40;;;;;;5084083;28;20024;-83
2021/06/09 09:46:11;;;;;;;10.38;4.30;;;743.30;1100.80;;;;;;5074127;28;20028;-79
2021/06/09 09:48:40;;;;;;;6.75;4.00;;;768.00;1049.60;;;;;;5092494;28;20028;-77
2021/06/09 09:51:06;;;;;;;9.00;4.40;;;768.10;1049.60;;;;;;5092387;28;20123;-84
2021/06/09 09:53:32;;;;;;;6.85;4.22;;;743.20;1100.80;;;;;;5092084;28;20024;-77
2021/06/09 09:56:11;;;;;;;5.97;3.92;;;768.40;947.20;;;;;;5091687;28;20526;-79
2021/06/09 09:59:05;;;;;;;6.63;4.32;;;768.50;998.40;;;;;;5065053;28;20392;-83
2021/06/09 10:01:38;;;;;;;12.02;4.50;;;768.60;998.40;;;;;;5009431;28;20408;-83
2021/06/09 10:04:06;;;;;;;8.07;4.68;;;768.80;1024.00;;;;;;4994086;28;20038;-80
2021/06/09 10:06:40;;;;;;;9.23;4.50;;;768.90;998.40;;;;;;5006508;28;20041;-82
2021/06/09 10:09:14;;;;;;;12.68;4.18;;;768.90;1024.00;;;;;;4994296;28;20022;-81
2021/06/09 10:11:51;;;;;;;11.65;4.88;;;793.70;998.40;;;;;;5009866;28;20048;-81
2021/06/09 10:14:21;;;;;;;7.97;4.38;;;793.90;998.40;;;;;;5010960;28;20165;-79
2021/06/09 10:17:01;;;;;;;5.03;4.10;;;793.90;947.20;;;;;;5030576;28;20049;-79
2021/06/09 10:19:29;;;;;;;9.68;4.38;;;793.70;947.20;;;;;;5028821;28;20033;-82
2021/06/09 10:22:10;;;;;;;5.72;3.72;;;794.00;972.80;;;;;;5011189;28;20048;-79
2021/06/09 10:24:49;;;;;;;7.30;4.05;;;794.00;972.80;;;;;;5010308;28;20494;-82
2021/06/09 10:27:17;;;;;;;6.18;4.07;;;794.10;998.40;;;;;;5009709;28;20041;-81
2021/06/09 10:29:44;;;;;;;7.43;4.00;;;794.20;921.60;;;;;;4993682;28;20105;-80
2021/06/09 10:32:18;;;;;;;4.80;4.00;;;794.00;972.80;;;;;;5010068;28;20058;-81
2021/06/09 10:34:46;;;;;;;8.25;4.00;;;794.00;972.80;;;;;;5009910;28;20041;-79
2021/06/09 10:37:13;;;;;;;9.07;3.90;;;794.10;972.80;;;;;;4993956;28;20030;-79
2021/06/09 10:39:42;;;;;;;8.52;5.57;;;794.10;998.40;;;;;;5091367;28;20028;-80
2021/06/09 10:42:11;;;;;;;7.20;4.40;;;794.20;921.60;;;;;;5091585;28;20043;-78
2021/06/09 10:44:39;;;;;;;8.52;4.38;;;794.30;972.80;;;;;;5072873;28;20457;-79
2021/06/09 10:47:09;;;;;;;7.20;4.20;;;794.50;947.20;;;;;;5073142;28;20469;-79
2021/06/09 10:49:38;;;;;;;8.68;3.90;;;794.50;947.20;;;;;;5072956;28;20382;-83
2021/06/09 10:52:05;;;;;;;6.50;4.63;;;794.50;921.60;;;;;;5073319;28;20107;-83
2021/06/09 10:54:31;;;;;;;5.75;3.92;;;819.30;896.00;;;;;;5073075;28;20020;-83
2021/06/09 10:56:57;;;;;;;8.10;4.35;;;819.30;896.00;;;;;;5064722;28;20024;-83
2021/06/09 10:59:28;;;;;;;6.57;4.22;;;794.20;921.60;;;;;;5091502;28;20016;-83
2021/06/09 11:02:17;;;;;;;7.78;3.95;;;793.80;947.20;;;;;;5091186;28;20024;-82
2021/06/09 11:04:46;;;;;;;6.28;3.80;;;768.90;921.60;;;;;;5072962;28;20032;-83
2021/06/09 11:07:32;;;;;;;6.07;3.78;;;768.60;870.40;;;;;;5067175;28;20032;-80
2021/06/09 11:10:01;;;;;;;7.43;4.70;;;768.80;896.00;;;;;;5092483;28;20496;-82
2021/06/09 11:12:30;;;;;;;5.03;3.95;;;793.70;947.20;;;;;;5073884;28;20039;-81
2021/06/09 11:15:12;;;;;;;6.45;4.05;;;793.70;947.20;;;;;;5073072;28;20028;-82
2021/06/09 11:17:56;;;;;;;9.38;4.38;;;768.70;921.60;;;;;;5076503;28;20020;-87
2021/06/09 11:20:37;;;;;;;6.57;4.10;;;793.70;921.60;;;;;;5092401;28;20020;-80
2021/06/09 11:23:09;;;;;;;5.70;4.10;;;794.00;947.20;;;;;;5077079;28;20036;-83
2021/06/09 11:25:44;;;;;;;9.45;3.83;;;794.30;921.60;;;;;;5076791;28;20024;-80
2021/06/09 11:28:11;;;;;;;5.28;3.33;;;794.30;921.60;;;;;;5076997;28;20054;-81
2021/06/09 11:30:57;;;;;;;5.13;3.90;;;794.20;896.00;;;;;;5075930;28;20024;-80
2021/06/09 11:33:34;;;;;;;;;;;793.70;921.60;;;;;;5076734;28;20024;-81
2021/06/09 11:36:02;;;;;;;9.00;4.45;;;794.20;921.60;;;;;;5074883;28;20132;-81
2021/06/09 11:38:30;;;;;;;8.13;4.15;;;794.30;870.40;;;;;;5076084;28;20051;-83
2021/06/09 11:40:59;;;;;;;8.57;7.70;;;794.50;896.00;;;;;;5094005;28;20095;-81
2021/06/09 11:43:29;;;;;;;6.65;3.70;;;793.90;870.40;;;;;;5075732;28;20035;-80
2021/06/09 11:45:59;;;;;;;8.55;3.90;;;768.90;896.00;;;;;;5075605;28;20435;-81
2021/06/09 11:48:26;;;;;;;6.13;3.28;;;793.70;921.60;;;;;;5075338;28;20064;-80
2021/06/09 11:50:56;;;;;;;7.38;4.30;;;793.70;921.60;;;;;;5075634;28;20059;-79
2021/06/09 11:53:40;;;;;;;4.95;3.92;;;768.90;896.00;;;;;;5075356;28;20119;-80
2021/06/09 11:56:18;;;;;;;10.68;4.22;;;793.80;921.60;;;;;;5093641;28;20030;-80
2021/06/09 11:58:49;;;;;;;5.90;3.95;;;794.20;896.00;;;;;;5075655;28;20012;-81
2021/06/09 12:01:18;;;;;;;5.68;3.78;;;794.30;896.00;;;;;;5092703;28;20047;-80
2021/06/09 12:03:44;;;;;;;8.57;3.10;;;794.40;896.00;;;;;;5093091;28;20034;-81
2021/06/09 12:06:11;;;;;;;5.30;3.30;;;819.30;896.00;;;;;;5074961;28;20043;-80
2021/06/09 12:08:36;;;;;;;5.75;3.63;;;819.30;870.40;;;;;;5093565;28;20024;-81
2021/06/09 12:11:02;;;;;;;9.40;4.45;;;794.50;844.80;;;;;;5074927;28;20024;-80
2021/06/09 12:13:28;;;;;;;4.75;3.47;;;819.30;844.80;;;;;;5074914;28;20119;-79
2021/06/09 12:16:17;;;;;;;7.25;4.10;;;819.60;870.40;;;;;;5093348;28;20070;-80
2021/06/09 12:18:44;;;;;;;10.25;3.72;;;819.60;819.20;;;;;;5074058;28;20028;-80
2021/06/09 12:21:13;;;;;;;15.00;4.47;;;819.20;870.40;;;;;;5075058;28;20039;-81
2021/06/09 12:23:54;;;;;;;7.18;3.85;;;794.20;870.40;;;;;;5072109;28;20042;-80
2021/06/09 12:26:20;;;;;;;20.85;5.25;;;793.90;896.00;;;;;;5072310;28;20055;-81
2021/06/09 12:28:46;;;;;;;11.35;3.70;;;794.00;844.80;;;;;;5074715;28;20096;-81
2021/06/09 12:31:12;;;;;;;8.75;3.85;;;794.40;870.40;;;;;;5093027;28;20036;-80
2021/06/09 12:33:41;;;;;;;4.70;3.60;;;794.50;819.20;;;;;;5092879;28;20027;-81